createdAt,value
2023-04-29T00:03:29.459Z,101347.88
2023-04-29T00:08:31.155Z,101350.53
2023-04-29T00:13:32.724Z,101361.91
2023-04-29T00:18:34.194Z,101354.34
2023-04-29T00:23:35.992Z,101360.03
2023-04-29T00:28:37.485Z,101362.31
2023-04-29T00:33:40.750Z,101372.69
2023-04-29T00:38:42.358Z,101376.69
2023-04-29T00:43:43.867Z,101384.97
2023-04-29T00:48:45.317Z,101388.22
2023-04-29T00:53:49.572Z,101393.94
2023-04-29T00:58:52.480Z,101394.44
2023-04-29T01:03:55.033Z,101395.78
2023-04-29T01:09:21.613Z,101407.41
2023-04-29T01:14:25.502Z,101412.59
2023-04-29T01:19:40.180Z,101414.16
2023-04-29T01:24:41.841Z,101416.16
2023-04-29T01:30:02.747Z,101415.84
2023-04-29T01:35:10.481Z,101426.44
2023-04-29T01:40:19.652Z,101433.13
2023-04-29T01:45:44.931Z,101431.06
2023-04-29T01:50:47.659Z,101435.72
2023-04-29T01:55:51.483Z,101435.94
2023-04-29T02:01:00.541Z,101432.38
2023-04-29T02:06:06.911Z,101440.16
2023-04-29T02:11:10.919Z,101449.25
2023-04-29T02:16:15.616Z,101455.38
2023-04-29T02:21:27.218Z,101465.19
2023-04-29T02:26:28.896Z,101468.84
2023-04-29T02:31:31.283Z,101475.94
2023-04-29T02:36:32.802Z,101481.00
2023-04-29T02:41:34.430Z,101494.19
2023-04-29T02:46:36.410Z,101493.97
2023-04-29T02:51:37.971Z,101496.94
2023-04-29T02:56:39.877Z,101505.25
2023-04-29T03:01:41.582Z,101521.28
2023-04-29T03:06:43.678Z,101522.28
2023-04-29T03:11:46.659Z,101522.50
2023-04-29T03:16:48.228Z,101529.28
2023-04-29T03:21:52.054Z,101529.97
2023-04-29T03:26:55.593Z,101532.81
2023-04-29T03:31:57.521Z,101531.50
2023-04-29T03:36:59.241Z,101544.44
2023-04-29T03:42:01.462Z,101539.47
2023-04-29T03:47:03.029Z,101543.84
2023-04-29T03:52:05.104Z,101551.84
2023-04-29T03:57:06.985Z,101562.00
2023-04-29T04:02:08.752Z,101561.81
2023-04-29T04:07:11.564Z,101570.66
2023-04-29T04:12:33.100Z,101579.13
2023-04-29T04:17:34.703Z,101588.03
2023-04-29T04:22:36.363Z,101588.22
2023-04-29T04:27:50.793Z,101597.97
2023-04-29T04:33:04.371Z,101606.84
2023-04-29T04:38:07.830Z,101607.88
2023-04-29T04:43:09.380Z,101617.38
2023-04-29T04:48:14.997Z,101622.84
2023-04-29T04:53:18.133Z,101633.25
2023-04-29T04:58:26.796Z,101635.19
2023-04-29T05:03:28.462Z,101646.78
2023-04-29T05:08:30.360Z,101642.31
2023-04-29T05:13:34.379Z,101645.31
2023-04-29T05:18:36.854Z,101659.44
2023-04-29T05:23:38.547Z,101664.00
2023-04-29T05:28:40.060Z,101664.75
2023-04-29T05:33:43.176Z,101674.88
2023-04-29T05:38:45.530Z,101679.72
2023-04-29T05:43:46.995Z,101685.19
2023-04-29T05:48:50.064Z,101687.03
2023-04-29T05:53:52.118Z,101702.47
2023-04-29T05:58:54.147Z,101707.34
2023-04-29T06:03:56.642Z,101708.38
2023-04-29T06:09:27.654Z,101714.81
2023-04-29T06:14:31.935Z,101723.22
2023-04-29T06:19:34.125Z,101730.16
2023-04-29T06:24:35.668Z,101737.75
2023-04-29T06:29:37.903Z,101739.03
2023-04-29T06:34:39.987Z,101747.06
2023-04-29T06:40:03.388Z,101754.38
2023-04-29T06:45:17.625Z,101761.78
2023-04-29T06:50:34.091Z,101772.84
2023-04-29T06:55:35.573Z,101776.84
2023-04-29T07:00:38.065Z,101786.91
2023-04-29T07:05:41.732Z,101796.41
2023-04-29T07:10:43.196Z,101790.97
2023-04-29T07:15:44.670Z,101792.25
2023-04-29T07:20:47.853Z,101810.44
2023-04-29T07:25:49.888Z,101826.06
2023-04-29T07:30:52.005Z,101831.81
2023-04-29T07:35:53.572Z,101836.00
2023-04-29T07:40:55.622Z,101841.13
2023-04-29T07:45:57.707Z,101854.56
2023-04-29T07:51:00.239Z,101860.38
2023-04-29T07:56:06.088Z,101864.59
2023-04-29T08:01:12.099Z,101868.19
2023-04-29T08:06:14.060Z,101880.34
2023-04-29T08:11:21.535Z,101880.94
2023-04-29T08:16:26.045Z,101884.03
2023-04-29T08:21:27.688Z,101895.16
2023-04-29T08:26:29.340Z,101887.34
2023-04-29T08:31:31.213Z,101901.94
2023-04-29T08:36:32.724Z,101909.22
2023-04-29T08:41:34.349Z,101907.75
2023-04-29T08:46:36.063Z,101914.69
2023-04-29T08:51:37.680Z,101914.38
2023-04-29T08:56:39.556Z,101917.53
2023-04-29T09:01:42.994Z,101922.50
2023-04-29T09:06:45.290Z,101919.44
2023-04-29T09:11:47.441Z,101918.94
2023-04-29T09:16:48.949Z,101929.06
2023-04-29T09:21:57.121Z,101929.78
2023-04-29T09:27:00.261Z,101926.75
2023-04-29T09:32:18.764Z,101926.44
2023-04-29T09:37:28.019Z,101930.75
2023-04-29T09:42:29.755Z,101931.16
2023-04-29T09:47:34.209Z,101942.34
2023-04-29T09:52:42.447Z,101942.78
2023-04-29T09:57:45.641Z,101950.81
2023-04-29T10:02:48.322Z,101950.25
2023-04-29T10:07:51.308Z,101947.25
2023-04-29T10:12:54.472Z,101959.19
2023-04-29T10:18:09.091Z,101956.25
2023-04-29T10:23:11.241Z,101954.00
2023-04-29T10:28:16.773Z,101939.59
2023-04-29T10:33:19.269Z,101945.13
2023-04-29T10:38:37.015Z,101956.78
2023-04-29T10:43:38.556Z,101942.66
2023-04-29T10:48:40.012Z,101956.16
2023-04-29T10:54:06.282Z,101937.59
2023-04-29T10:59:16.078Z,101948.63
2023-04-29T11:04:19.810Z,101956.00
2023-04-29T11:09:24.434Z,101966.41
2023-04-29T11:14:32.668Z,101965.47
2023-04-29T11:19:36.689Z,101966.94
2023-04-29T11:25:02.104Z,101969.16
2023-04-29T11:30:06.519Z,101951.13
2023-04-29T11:35:13.597Z,101963.91
2023-04-29T11:40:15.523Z,101960.81
2023-04-29T11:45:18.589Z,101962.63
2023-04-29T11:50:20.759Z,101961.47
2023-04-29T11:55:22.496Z,101970.97
2023-04-29T12:00:24.690Z,101971.75
2023-04-29T12:05:26.741Z,101972.06
2023-04-29T12:10:28.438Z,101972.22
2023-04-29T12:15:31.420Z,101961.63
2023-04-29T12:20:33.036Z,101968.25
2023-04-29T12:25:35.089Z,101970.19
2023-04-29T12:30:37.473Z,101971.50
2023-04-29T12:35:39.121Z,101973.69
2023-04-29T12:40:40.870Z,101979.94
2023-04-29T12:45:42.783Z,101964.84
2023-04-29T12:50:49.507Z,101956.59
2023-04-29T12:55:51.627Z,101965.06
2023-04-29T13:00:53.118Z,101966.81
2023-04-29T13:05:54.841Z,101966.22
2023-04-29T13:10:56.525Z,101953.97
2023-04-29T13:15:58.311Z,101963.34
2023-04-29T13:21:02.233Z,101955.13
2023-04-29T13:26:05.245Z,101961.75
2023-04-29T13:31:06.697Z,101963.75
2023-04-29T13:36:08.155Z,101956.63
2023-04-29T13:41:14.474Z,101966.38
2023-04-29T13:46:20.642Z,101963.78
2023-04-29T13:52:09.803Z,101967.25
2023-04-29T13:57:27.103Z,101962.00
2023-04-29T14:07:09.884Z,101969.78
2023-04-29T14:12:11.578Z,101985.19
2023-04-29T14:17:13.183Z,101976.84
2023-04-29T14:22:14.676Z,101988.66
2023-04-29T14:27:16.168Z,101990.16
2023-04-29T14:32:17.624Z,101985.28
2023-04-29T14:37:19.152Z,101994.47
2023-04-29T14:42:20.654Z,102000.84
2023-04-29T14:47:22.374Z,101993.34
2023-04-29T14:52:23.840Z,101993.88
2023-04-29T14:57:25.309Z,101997.28
2023-04-29T15:02:26.785Z,102004.75
2023-04-29T15:07:31.586Z,102013.72
2023-04-29T15:12:33.283Z,102011.22
2023-04-29T15:17:34.831Z,102011.84
2023-04-29T15:22:36.935Z,102013.28
2023-04-29T15:27:38.946Z,102008.69
2023-04-29T15:32:40.488Z,102011.28
2023-04-29T15:37:41.962Z,102009.66
2023-04-29T15:42:43.488Z,102009.06
2023-04-29T15:47:44.995Z,102019.25
2023-04-29T15:52:46.532Z,102027.72
2023-04-29T15:57:49.970Z,102026.84
2023-04-29T16:02:59.204Z,102028.25
2023-04-29T16:08:00.749Z,102024.41
2023-04-29T16:13:02.629Z,102037.44
2023-04-29T16:18:04.186Z,102046.78
2023-04-29T16:23:05.944Z,102039.94
2023-04-29T16:28:07.476Z,102048.03
2023-04-29T16:33:09.234Z,102046.50
2023-04-29T16:38:11.457Z,102051.69
2023-04-29T16:43:15.227Z,102052.03
2023-04-29T16:48:16.701Z,102054.63
2023-04-29T16:53:18.170Z,102051.59
2023-04-29T16:58:19.834Z,102052.38
2023-04-29T17:03:21.485Z,102058.44
2023-04-29T17:08:24.110Z,102049.31
2023-04-29T17:13:25.861Z,102052.84
2023-04-29T17:18:28.101Z,102049.19
2023-04-29T17:23:30.702Z,102055.53
2023-04-29T17:28:32.401Z,102056.94
2023-04-29T17:33:35.096Z,102057.31
2023-04-29T17:38:36.618Z,102069.25
2023-04-29T17:43:38.070Z,102061.59
2023-04-29T17:48:39.536Z,102066.13
2023-04-29T17:53:41.008Z,102078.22
2023-04-29T17:58:42.469Z,102087.53
2023-04-29T18:03:46.328Z,102094.97
2023-04-29T18:08:48.391Z,102096.41
2023-04-29T18:13:52.667Z,102102.38
2023-04-29T18:18:56.807Z,102097.72
2023-04-29T18:23:58.692Z,102099.66
2023-04-29T18:29:00.165Z,102112.16
2023-04-29T18:34:01.705Z,102121.22
2023-04-29T18:39:03.311Z,102118.28
2023-04-29T18:44:04.786Z,102127.59
2023-04-29T18:49:06.269Z,102121.97
2023-04-29T18:54:07.758Z,102129.94
2023-04-29T18:59:10.090Z,102120.88
2023-04-29T19:04:11.640Z,102131.09
2023-04-29T19:09:13.747Z,102133.19
2023-04-29T19:14:15.270Z,102148.38
2023-04-29T19:19:16.813Z,102156.22
2023-04-29T19:24:18.392Z,102162.25
2023-04-29T19:29:20.159Z,102166.56
2023-04-29T19:34:21.924Z,102178.50
2023-04-29T19:39:23.372Z,102177.00
2023-04-29T19:44:24.902Z,102183.19
2023-04-29T19:49:26.434Z,102183.59
2023-04-29T19:54:28.560Z,102186.91
2023-04-29T19:59:30.008Z,102194.25
2023-04-29T20:04:31.803Z,102195.31
2023-04-29T20:09:33.339Z,102209.25
2023-04-29T20:14:34.789Z,102216.66
2023-04-29T20:19:36.238Z,102211.69
2023-04-29T20:24:37.674Z,102219.88
2023-04-29T20:29:39.147Z,102239.00
2023-04-29T20:34:41.871Z,102239.09
2023-04-29T20:39:43.569Z,102247.31
2023-04-29T20:44:45.063Z,102254.63
2023-04-29T20:49:46.542Z,102263.38
2023-04-29T20:54:48.077Z,102261.66
2023-04-29T20:59:49.583Z,102264.25
2023-04-29T21:04:51.129Z,102273.66
2023-04-29T21:09:52.877Z,102275.53
2023-04-29T21:14:54.472Z,102290.81
2023-04-29T21:19:56.462Z,102277.88
2023-04-29T21:24:57.922Z,102289.03
2023-04-29T21:29:59.361Z,102302.94
2023-04-29T21:35:00.849Z,102291.59
2023-04-29T21:40:04.209Z,102298.88
2023-04-29T21:45:06.858Z,102297.06
2023-04-29T21:50:09.617Z,102299.63
2023-04-29T21:55:11.074Z,102308.09
2023-04-29T22:00:28.669Z,102303.38
2023-04-29T22:05:31.439Z,102315.72
2023-04-29T22:10:33.372Z,102320.06
2023-04-29T22:15:34.941Z,102315.47
2023-04-29T22:20:36.452Z,102323.47
2023-04-29T22:25:38.143Z,102320.78
2023-04-29T22:30:39.626Z,102321.75
2023-04-29T22:35:41.371Z,102331.91
2023-04-29T22:40:49.213Z,102330.00
2023-04-29T22:45:54.763Z,102337.47
2023-04-29T22:50:59.316Z,102347.63
2023-04-29T22:56:02.014Z,102331.56
2023-04-29T23:01:03.583Z,102349.91
2023-04-29T23:06:05.193Z,102342.69
2023-04-29T23:11:06.822Z,102346.78
2023-04-29T23:16:10.734Z,102358.22
2023-04-29T23:21:12.446Z,102361.38
2023-04-29T23:26:13.885Z,102360.66
2023-04-29T23:31:15.442Z,102368.31
2023-04-29T23:36:16.923Z,102370.59
2023-04-29T23:41:18.370Z,102371.63
2023-04-29T23:46:19.892Z,102367.56
2023-04-29T23:51:21.367Z,102378.19
2023-04-29T23:56:24.793Z,102386.25
